createdAt,value
2022-10-04T00:15:49.381Z,23.27
2022-10-04T00:25:54.138Z,29.07
2022-10-04T01:07:42.344Z,25.73
2022-10-04T01:14:15.499Z,18.95
2022-10-04T01:16:42.143Z,13.45
2022-10-04T01:19:23.811Z,17.63
2022-10-04T01:22:12.891Z,22.15
2022-10-04T01:24:44.546Z,19.93
2022-10-04T01:35:12.977Z,26.50
2022-10-04T01:37:40.104Z,20.13
2022-10-04T01:40:11.140Z,20.10
2022-10-04T01:45:48.879Z,17.80
2022-10-04T01:48:18.941Z,20.35
2022-10-04T01:51:25.855Z,20.93
2022-10-04T01:54:21.883Z,16.10
2022-10-04T01:57:10.579Z,24.15
2022-10-04T01:59:47.158Z,21.50
2022-10-04T02:02:25.717Z,26.58
2022-10-04T02:05:03.233Z,20.43
2022-10-04T02:07:41.951Z,29.58
2022-10-04T02:10:09.491Z,22.70
2022-10-04T02:18:43.023Z,17.97
2022-10-04T02:21:11.437Z,27.45
2022-10-04T02:23:48.052Z,25.60
2022-10-04T02:26:23.713Z,26.08
2022-10-04T02:28:51.881Z,23.70
2022-10-04T02:44:19.969Z,23.05
2022-10-04T02:47:10.021Z,28.47
2022-10-04T02:49:58.553Z,22.58
2022-10-04T03:49:03.131Z,28.20
2022-10-04T03:51:30.169Z,24.98
2022-10-04T04:16:40.459Z,22.58
2022-10-04T04:19:22.486Z,25.58
2022-10-04T04:39:48.135Z,30.30
2022-10-04T04:49:36.264Z,23.10
2022-10-04T04:52:06.909Z,27.55
2022-10-04T04:57:43.872Z,32.08
2022-10-04T05:00:43.431Z,26.60
2022-10-04T05:03:45.528Z,34.15
2022-10-04T05:06:29.035Z,24.58
2022-10-04T05:12:31.867Z,28.20
2022-10-04T08:47:55.274Z,13.65
2022-10-04T08:50:52.971Z,14.93
2022-10-04T08:53:58.727Z,20.27
2022-10-04T09:10:24.918Z,20.40
2022-10-04T10:55:18.557Z,13.10
2022-10-04T11:59:12.082Z,12.38
2022-10-04T12:21:46.148Z,15.63
2022-10-04T12:27:32.349Z,14.35
2022-10-04T12:34:31.085Z,15.20
2022-10-04T12:41:57.800Z,11.90
2022-10-04T12:44:51.946Z,16.10
2022-10-04T12:54:41.397Z,11.77
2022-10-04T12:57:11.004Z,14.73
2022-10-04T13:03:38.733Z,14.77
2022-10-04T13:35:23.415Z,15.73
2022-10-04T14:22:00.628Z,12.68
2022-10-04T14:34:46.191Z,12.17
2022-10-04T14:38:00.254Z,7.43
2022-10-04T14:41:07.651Z,11.18
2022-10-04T14:50:41.265Z,9.70
2022-10-04T14:53:48.669Z,11.75
2022-10-04T15:03:18.466Z,14.23
2022-10-04T15:15:33.075Z,12.27
2022-10-04T15:27:49.497Z,12.65
2022-10-04T15:30:56.759Z,16.58
2022-10-04T15:43:53.009Z,13.13
2022-10-04T15:56:22.075Z,10.90
2022-10-04T15:59:19.012Z,14.43
2022-10-04T16:12:20.564Z,10.73
2022-10-04T16:15:24.689Z,11.65
2022-10-04T16:18:20.335Z,13.60
2022-10-04T16:21:33.251Z,11.68
2022-10-04T16:24:39.371Z,13.27
2022-10-04T17:03:57.941Z,12.13
2022-10-04T17:29:02.528Z,10.50
2022-10-04T17:32:30.309Z,16.23
2022-10-04T17:35:21.779Z,13.48
2022-10-04T17:38:07.633Z,14.38
2022-10-04T17:44:41.042Z,14.53
2022-10-04T17:47:45.694Z,11.88
2022-10-04T17:52:31.552Z,11.07
2022-10-04T17:57:08.030Z,12.52
2022-10-04T18:00:21.961Z,12.53
2022-10-04T18:03:35.477Z,16.70
2022-10-04T18:06:14.749Z,10.80
2022-10-04T18:09:05.813Z,15.90
2022-10-04T18:11:50.078Z,13.13
2022-10-04T18:15:06.647Z,10.00
2022-10-04T18:17:48.664Z,12.50
2022-10-04T18:20:30.414Z,13.93
2022-10-04T18:23:29.426Z,11.65
2022-10-04T18:28:55.352Z,13.47
2022-10-04T18:35:35.980Z,14.95
2022-10-04T18:38:32.126Z,10.63
2022-10-04T18:58:48.960Z,9.98
2022-10-04T19:01:49.329Z,11.23
2022-10-04T19:04:26.581Z,12.23
2022-10-04T19:07:22.181Z,10.98
2022-10-04T19:10:24.175Z,12.85
2022-10-04T19:13:34.133Z,12.80
2022-10-04T19:16:00.790Z,15.23
2022-10-04T19:18:44.767Z,9.50
2022-10-04T19:21:42.763Z,13.75
2022-10-04T19:24:30.585Z,12.15
2022-10-04T19:27:03.921Z,14.13
2022-10-04T19:30:06.475Z,9.73
2022-10-04T19:32:58.988Z,10.43
2022-10-04T19:35:59.661Z,10.43
2022-10-04T19:38:55.801Z,8.88
2022-10-04T19:41:40.593Z,9.40
2022-10-04T19:44:39.383Z,14.10
2022-10-04T19:47:38.415Z,9.80
2022-10-04T19:50:24.020Z,11.02
2022-10-04T19:53:09.624Z,11.38
2022-10-04T19:55:42.143Z,9.98
2022-10-04T19:58:23.978Z,9.60
2022-10-04T20:00:50.892Z,11.60
2022-10-04T20:03:18.318Z,9.43
2022-10-04T20:05:50.661Z,12.13
2022-10-04T20:08:51.280Z,12.15
2022-10-04T20:11:22.435Z,13.10
2022-10-04T20:17:06.827Z,13.10
2022-10-04T20:19:41.101Z,13.73
2022-10-04T20:22:07.704Z,15.23
2022-10-04T20:24:54.977Z,11.37
2022-10-04T20:27:27.757Z,13.40
2022-10-04T20:30:02.136Z,12.35
2022-10-04T20:32:28.901Z,11.77
2022-10-04T20:35:02.519Z,12.23
2022-10-04T20:37:44.205Z,13.27
2022-10-04T20:40:40.065Z,13.23
2022-10-04T20:43:15.921Z,13.05
2022-10-04T20:45:53.728Z,17.08
2022-10-04T20:48:28.539Z,14.65
2022-10-04T20:50:55.795Z,16.83
2022-10-04T20:53:26.949Z,11.93
2022-10-04T20:56:10.028Z,18.00
2022-10-04T20:58:36.714Z,15.93
2022-10-04T21:01:28.110Z,13.18
2022-10-04T21:04:15.692Z,15.17
2022-10-04T21:06:56.789Z,14.07
2022-10-04T21:09:28.211Z,14.90
2022-10-04T21:11:56.737Z,12.48
2022-10-04T21:14:27.148Z,12.25
2022-10-04T21:16:59.976Z,16.03
2022-10-04T21:19:35.060Z,12.30
2022-10-04T21:22:03.767Z,12.77
2022-10-04T21:24:49.744Z,12.50
2022-10-04T21:46:25.979Z,12.65
2022-10-04T21:49:08.106Z,13.88
2022-10-04T21:51:35.469Z,14.90
2022-10-04T21:54:11.186Z,12.13
2022-10-04T21:56:38.277Z,11.10
2022-10-04T21:59:11.208Z,11.43
2022-10-04T22:01:54.537Z,14.02
2022-10-04T22:07:17.679Z,11.05
2022-10-04T22:09:44.551Z,13.83
2022-10-04T22:12:11.187Z,13.00
2022-10-04T22:14:48.408Z,11.45
2022-10-04T22:17:18.390Z,14.32
2022-10-04T22:19:45.119Z,14.52
2022-10-04T22:22:20.884Z,13.60
2022-10-04T22:24:47.532Z,13.15
2022-10-04T22:27:19.849Z,14.75
2022-10-04T22:29:46.850Z,13.63
2022-10-04T22:32:18.054Z,11.05
2022-10-04T22:34:44.905Z,15.13
2022-10-04T22:37:12.124Z,16.10
2022-10-04T22:39:47.975Z,12.02
2022-10-04T22:42:18.120Z,13.77
2022-10-04T22:44:53.500Z,11.07
2022-10-04T22:47:20.136Z,15.37
2022-10-04T22:49:55.720Z,11.35
2022-10-04T22:52:24.613Z,12.68
2022-10-04T22:54:57.961Z,13.00
2022-10-04T22:57:25.254Z,13.00
2022-10-04T22:59:56.476Z,11.53
2022-10-04T23:02:35.293Z,13.90
2022-10-04T23:05:17.058Z,13.55
2022-10-04T23:07:44.991Z,11.60
2022-10-04T23:10:13.328Z,11.43
2022-10-04T23:15:20.837Z,15.18
2022-10-04T23:17:53.935Z,13.18
2022-10-04T23:20:21.150Z,12.73
2022-10-04T23:22:55.496Z,15.80
2022-10-04T23:31:49.451Z,12.80
2022-10-04T23:34:56.791Z,15.52
2022-10-04T23:41:01.650Z,11.37
2022-10-04T23:43:39.972Z,14.23
2022-10-04T23:46:14.458Z,14.88
2022-10-04T23:49:18.244Z,11.38
2022-10-04T23:51:46.443Z,13.57
2022-10-04T23:54:18.495Z,14.33
2022-10-04T23:56:46.624Z,12.23
2022-10-04T23:59:26.040Z,10.18
